• Join FlightAware (Why Join?)
  • Login
  • US Flag 
03:01AM EDT


 

Airport Tracker/Info


-or-


 

Live Flight TrackerFlight Track Log ✈ SWA2661 ✈ 05-Jan-2013 ✈ KMHT - KMCO

Flight Track Log - Related Links

Times and Time Zones

All times are in EST time to prevent confusion due to time zone crossing. See the SWA2661 flight status page for this flight to view local times or setup timezone preferences in your user account.

Time Position Orientation Groundspeed Altitude Reporting Facility
EST Latitude Longitude Course Direction KTS MPH feet Rate Location/Type
04:11PM 42.9500 -71.4333 324° Northwest 142 163 1,500  Level KA90
04:12PM 42.9833 -71.4667 324° Northwest 190 219 4,300 3,420 Climbing KA90
04:13PM 43.0317 -71.4431 20° North 209 241 8,000 3,300 Climbing Boston Center
04:14PM 43.0411 -71.3436 83° East 203 234 10,700 2,940 Climbing Boston Center
04:15PM 43.0506 -71.2297 83° East 261 300 13,900 2,520 Climbing Boston Center
04:16PM 43.0408 -71.1192 97° East 303 349 15,800 2,280 Climbing Boston Center
04:17PM 42.9464 -71.0475 151° Southeast 297 342 18,500 1,740 Climbing Boston Center
04:18PM 42.8619 -70.9786 149° Southeast 320 368 19,300 1,500 Climbing Boston Center
04:19PM 42.7517 -70.9925 185° South 361 415 21,500 2,520 Climbing Boston Center
04:20PM 42.6317 -71.0572 202° Southwest 391 450 24,400 2,400 Climbing Boston Center
04:21PM 42.5558 -71.1547 223° Southwest 379 436 26,300 2,460 Climbing Boston Center
04:22PM 42.4964 -71.2658 234° Southwest 357 411 29,400 2,580 Climbing Boston Center
04:23PM 42.4414 -71.3794 237° Southwest 362 417 31,500 1,260 Climbing Boston Center
04:24PM 42.3881 -71.4900 237° Southwest 362 417 32,000 240 Climbing Boston Center
04:25PM 42.3283 -71.5919 232° Southwest 362 417 32,000  Level Boston Center
04:26PM 42.2731 -71.7050 237° Southwest 362 417 32,100 900 Climbing Boston Center
04:27PM 42.2153 -71.8122 234° Southwest 362 417 33,900 1,680 Climbing Boston Center
04:28PM 42.1594 -71.9219 236° Southwest 362 417 35,500 1,800 Climbing Boston Center
04:29PM 42.1058 -72.0231 234° Southwest 362 417 37,500 1,200 Climbing Boston Center
04:30PM 42.0519 -72.1269 235° Southwest 357 411 38,000 240 Climbing Boston Center
04:31PM 42.0000 -72.2306 236° Southwest 346 398 38,000  Level Boston Center
04:32PM 41.9461 -72.3311 234° Southwest 346 398 38,000  Level Boston Center
04:33PM 41.8919 -72.4344 235° Southwest 346 398 38,000  Level Boston Center
04:34PM 41.8419 -72.5319 235° Southwest 335 386 38,000  Level Boston Center
04:35PM 41.7875 -72.6322 234° Southwest 335 386 38,000  Level Boston Center
04:36PM 41.7372 -72.7322 236° Southwest 335 386 38,000  Level Boston Center
04:37PM 41.6869 -72.8264 234° Southwest 335 386 38,000  Level Boston Center
04:38PM 41.6344 -72.9233 234° Southwest 335 386 38,000  Level Boston Center
04:39PM 41.5842 -73.0200 235° Southwest 335 386 38,000  Level Boston Center
04:40PM 41.5439 -73.0975 235° Southwest 335 386 38,000  Level Boston Center
04:41PM 41.4914 -73.1967 235° Southwest 323 372 38,000  Level Boston Center
04:42PM 41.4364 -73.2956 233° Southwest 323 372 38,000  Level Boston Center
04:43PM 41.3878 -73.3919 236° Southwest 323 372 38,000  Level Boston Center
04:45PM 41.2736 -73.5981 234° Southwest 331 381 38,000  Level New York Center
04:46PM 41.2150 -73.6947 231° Southwest 331 381 38,000  Level New York Center
04:47PM 41.1606 -73.7917 233° Southwest 336 387 38,000  Level New York Center
04:48PM 41.1017 -73.8881 231° Southwest 336 387 38,000  Level New York Center
04:49PM 41.0469 -73.9847 233° Southwest 336 387 38,000  Level New York Center
04:50PM 40.9881 -74.0836 232° Southwest 336 387 38,000  Level New York Center
04:51PM 40.9292 -74.1767 230° Southwest 336 387 38,000  Level New York Center
04:52PM 40.8681 -74.2697 229° Southwest 336 387 38,000  Level New York Center
04:53PM 40.8092 -74.3600 229° Southwest 336 387 38,000  Level New York Center
04:54PM 40.7358 -74.4381 219° Southwest 342 394 38,000  Level New York Center
04:55PM 40.6603 -74.5217 220° Southwest 342 394 38,000  Level New York Center
04:56PM 40.5869 -74.5997 219° Southwest 347 399 38,000  Level New York Center
04:57PM 40.5158 -74.6775 220° Southwest 347 399 38,000  Level New York Center
04:58PM 40.4422 -74.7578 220° Southwest 342 394 38,000  Level New York Center
05:00PM 40.3094 -74.9006 219° Southwest 371 427 38,000  Level Washington Center
05:01PM 40.2369 -74.9772 219° Southwest 358 412 38,000  Level Washington Center
05:02PM 40.1542 -75.0675 220° Southwest 351 404 38,000  Level Washington Center
05:03PM 40.0939 -75.1306 219° Southwest 351 404 38,000  Level Washington Center
05:04PM 40.0047 -75.2286 220° Southwest 351 404 38,000  Level Washington Center
05:05PM 39.9300 -75.3047 218° Southwest 356 410 38,000  Level Washington Center
05:06PM 39.8531 -75.3861 219° Southwest 356 410 38,000  Level Washington Center
05:07PM 39.7781 -75.4647 219° Southwest 356 410 38,000  Level Washington Center
05:08PM 39.7031 -75.5431 219° Southwest 350 403 38,000  Level Washington Center
05:09PM 39.6219 -75.6239 218° Southwest 350 403 38,000  Level Washington Center
05:10PM 39.5447 -75.7044 219° Southwest 355 409 38,000  Level Washington Center
05:11PM 39.4675 -75.7906 221° Southwest 360 414 38,000  Level Washington Center
05:12PM 39.3883 -75.8708 218° Southwest 365 420 38,000  Level Washington Center
05:13PM 39.3089 -75.9511 218° Southwest 370 426 38,000  Level Washington Center
05:14PM 39.2314 -76.0336 220° Southwest 375 432 38,000  Level Washington Center
05:15PM 39.1497 -76.1136 217° Southwest 375 432 38,000 480 Level Washington Center
05:16PM 39.0703 -76.1906 217° Southwest 375 432 39,000 1,020 Climbing Washington Center
05:17PM 38.9928 -76.2753 220° Southwest 375 432 40,000 480 Climbing Washington Center
05:18PM 38.9131 -76.3547 218° Southwest 375 432 40,000  Level Washington Center
05:19PM 38.8333 -76.4339 218° Southwest 375 432 40,000  Level Washington Center
05:20PM 38.7536 -76.5128 218° Southwest 375 432 40,000  Level Washington Center
05:21PM 38.6736 -76.5942 218° Southwest 375 432 40,000  Level Washington Center
05:22PM 38.5936 -76.6728 218° Southwest 375 432 40,000  Level Washington Center
05:23PM 38.5158 -76.7511 218° Southwest 375 432 40,000  Level Washington Center
05:24PM 38.4358 -76.8322 218° Southwest 375 432 40,000  Level Washington Center
05:25PM 38.3578 -76.9103 218° Southwest 375 432 40,000  Level Washington Center
05:26PM 38.2778 -76.9883 217° Southwest 370 426 40,000  Level Washington Center
05:27PM 38.1997 -77.0633 217° Southwest 370 426 40,000  Level Washington Center
05:28PM 38.1217 -77.1383 217° Southwest 370 426 40,000  Level Washington Center
05:29PM 38.0433 -77.2158 218° Southwest 370 426 40,000  Level Washington Center
05:30PM 37.9672 -77.2958 220° Southwest 370 426 40,000  Level Washington Center
05:31PM 37.8869 -77.3731 217° Southwest 370 426 40,000  Level Washington Center
05:32PM 37.8086 -77.4500 218° Southwest 370 426 40,000  Level Washington Center
05:33PM 37.7344 -77.5217 217° Southwest 370 426 40,000  Level Washington Center
05:34PM 37.6539 -77.6011 218° Southwest 370 426 40,000  Level Washington Center
05:35PM 37.5672 -77.6694 212° Southwest 375 432 40,000  Level Washington Center
05:36PM 37.4742 -77.7325 208° Southwest 375 432 40,000  Level Washington Center
05:37PM 37.3833 -77.7978 210° Southwest 375 432 40,000  Level Washington Center
05:38PM 37.2925 -77.8631 210° Southwest 386 444 40,000  Level Washington Center
05:39PM 37.2017 -77.9231 208° Southwest 381 438 40,000  Level Washington Center
05:40PM 37.1106 -77.9881 210° Southwest 381 438 40,000  Level Washington Center
05:41PM 37.0197 -78.0500 209° Southwest 381 438 40,000  Level Washington Center
05:42PM 36.9264 -78.1147 209° Southwest 381 438 40,000  Level Washington Center
05:43PM 36.8356 -78.1792 210° Southwest 381 438 40,000  Level Washington Center
05:44PM 36.7444 -78.2408 208° Southwest 381 438 40,000  Level Washington Center
05:45PM 36.6447 -78.3128 210° Southwest 381 438 40,000  Level Washington Center
05:46PM 36.5514 -78.3767 209° Southwest 381 438 40,000  Level Washington Center
05:47PM 36.4581 -78.4406 209° Southwest 381 438 40,000  Level Washington Center
05:48PM 36.3647 -78.5042 209° Southwest 381 438 40,000  Level Washington Center
05:49PM 36.2736 -78.5678 209° Southwest 381 438 40,000  Level Washington Center
05:50PM 36.1803 -78.6286 208° Southwest 381 438 40,000  Level Washington Center
05:51PM 36.0847 -78.6942 209° Southwest 381 438 40,000  Level Washington Center
05:52PM 35.9911 -78.7572 209° Southwest 381 438 40,000  Level Washington Center
05:53PM 35.8956 -78.8175 207° Southwest 386 444 40,000  Level Washington Center
05:54PM 35.8106 -78.8756 209° Southwest 386 444 40,000 -300 Level Washington Center
05:55PM 35.7192 -78.9383 209° Southwest 386 444 39,500 -720 Descending Washington Center
05:56PM 35.6233 -79.0008 208° Southwest 386 444 38,600 -780 Descending Washington Center
05:57PM 35.5300 -79.0606 208° Southwest 386 444 38,000 -300 Descending Washington Center
05:58PM 35.4300 -79.1275 209° Southwest 381 438 38,000  Level Washington Center
05:59PM 35.3342 -79.1897 208° Southwest 386 444 38,000  Level Washington Center
06:00PM 35.2467 -79.2492 209° Southwest 392 451 38,000  Level Washington Center
06:01PM 35.1511 -79.3083 207° Southwest 392 451 38,000  Level Washington Center
06:02PM 35.0572 -79.3700 208° Southwest 392 451 38,000  Level Washington Center
06:05PM 34.7789 -79.5486 208° Southwest 375 432 38,000  Level Jacksonville Center
06:06PM 34.6867 -79.6078 208° Southwest 375 432 38,000  Level Jacksonville Center
06:07PM 34.5900 -79.6619 205° Southwest 380 437 38,000  Level Jacksonville Center
06:08PM 34.4822 -79.6911 193° South 390 449 38,000  Level Jacksonville Center
06:09PM 34.3725 -79.7228 193° South 400 460 38,000  Level Jacksonville Center
06:10PM 34.2711 -79.7542 194° South 395 455 38,000  Level Jacksonville Center
06:11PM 34.1633 -79.7856 194° South 395 455 38,000  Level Jacksonville Center
06:12PM 34.0536 -79.8172 193° South 395 455 38,000  Level Jacksonville Center
06:13PM 33.9458 -79.8483 193° South 395 455 38,000  Level Jacksonville Center
06:14PM 33.8358 -79.8797 193° South 400 460 38,000  Level Jacksonville Center
06:15PM 33.7281 -79.9108 194° South 400 460 38,000  Level Jacksonville Center
06:16PM 33.6203 -79.9419 194° South 400 460 38,000  Level Jacksonville Center
06:17PM 33.5042 -79.9733 193° South 400 460 38,000  Level Jacksonville Center
06:18PM 33.3986 -80.0042 194° South 400 460 38,000  Level Jacksonville Center
06:19PM 33.2928 -80.0350 194° South 395 455 38,000  Level Jacksonville Center
06:20PM 33.1869 -80.0631 193° South 395 455 38,000  Level Jacksonville Center
06:21PM 33.0811 -80.0936 194° South 395 455 38,000  Level Jacksonville Center
06:22PM 32.9878 -80.1214 194° South 390 449 38,000  Level Jacksonville Center
06:23PM 32.8675 -80.1522 192° South 398 458 38,000  Level Jacksonville Center
06:24PM 32.7617 -80.1828 194° South 398 458 38,000  Level Jacksonville Center
06:25PM 32.6558 -80.2131 194° South 393 452 38,000  Level Jacksonville Center
06:26PM 32.5500 -80.2433 194° South 393 452 38,000  Level Jacksonville Center
06:27PM 32.4422 -80.2733 193° South 393 452 38,000  Level Jacksonville Center
06:28PM 32.3364 -80.3011 193° South 393 452 38,000  Level Jacksonville Center
06:29PM 32.2283 -80.3311 193° South 393 452 38,000  Level Jacksonville Center
06:30PM 32.1225 -80.3586 192° South 393 452 38,000  Level Jacksonville Center
06:31PM 32.0144 -80.3911 194° South 397 457 38,000  Level Jacksonville Center
06:32PM 31.9064 -80.4208 193° South 398 458 38,000  Level Jacksonville Center
06:33PM 31.8006 -80.4506 193° South 404 465 38,000  Level Jacksonville Center
06:34PM 31.7031 -80.4775 193° South 399 459 38,000  Level Jacksonville Center
06:35PM 31.5742 -80.5053 190° South 425 489 38,000  Level Jacksonville Center
06:36PM 31.4619 -80.5325 192° South 419 482 38,000  Level Jacksonville Center
06:37PM 31.3497 -80.5622 193° South 419 482 38,000  Level Jacksonville Center
06:38PM 31.2394 -80.5917 193° South 419 482 38,000  Level Jacksonville Center
06:39PM 31.1336 -80.6256 195° South 414 476 38,000  Level Jacksonville Center
06:40PM 31.0236 -80.6575 194° South 404 465 38,000  Level Jacksonville Center
06:41PM 30.9156 -80.6867 193° South 404 465 38,000  Level Jacksonville Center
06:42PM 30.8075 -80.7158 193° South 404 465 38,000  Level Jacksonville Center
06:43PM 30.6994 -80.7425 192° South 404 465 38,000 -360 Level Jacksonville Center
06:44PM 30.5892 -80.7739 194° South 404 465 37,300 -900 Descending Jacksonville Center
06:45PM 30.4811 -80.8028 193° South 409 471 36,300 -960 Descending Jacksonville Center
06:46PM 30.3667 -80.8294 191° South 414 476 35,400 -900 Descending Jacksonville Center
06:47PM 30.2628 -80.8508 190° South 414 476 34,600 -720 Descending Jacksonville Center
06:48PM 30.1503 -80.8747 190° South 414 476 34,000 -300 Descending Jacksonville Center
06:49PM 30.0358 -80.8964 189° South 414 476 34,000  Level Jacksonville Center
06:50PM 29.9214 -80.9203 190° South 419 482 34,000 -1,200 Level Jacksonville Center
06:51PM 29.8111 -80.9394 189° South 419 482 31,600 -2,880 Descending Jacksonville Center
06:52PM 29.6944 -80.9631 190° South 419 482 28,300 -3,000 Descending Jacksonville Center
06:53PM 29.5800 -80.9869 190° South 419 482 25,600 -2,700 Descending Jacksonville Center
06:54PM 29.4633 -81.0058 188° South 404 465 22,900 -2,580 Descending Jacksonville Center
06:55PM 29.3572 -81.0244 189° South 383 441 20,500 -2,400 Descending Jacksonville Center
06:56PM 29.2594 -81.0456 191° South 367 422 18,100 6,720 Descending Jacksonville Center
06:57PM 29.1594 -81.0639 189° South 361 415 34,000 -2,400 Climbing Jacksonville Center
06:58PM 29.0639 -81.0847 191° South 357 411 13,300 -11,040 Descending Jacksonville Center
06:59PM 28.9761 -81.0839 180° South 348 400 12,000 -1,200 Descending Jacksonville Center
07:00PM 28.8781 -81.0881 182° South 348 400 11,000 -1,020 Descending Jacksonville Center
07:01PM 28.7886 -81.1086 191° South 348 400 10,000 -1,020 Descending Jacksonville Center
07:02PM 28.7094 -81.1244 190° South 322 371 9,000 -540 Descending Jacksonville Center
07:03PM 28.6325 -81.1400 190° South 302 348 9,000  Level Jacksonville Center
07:04PM 28.5556 -81.1556 190° South 288 331 9,000 -660 Level Jacksonville Center
07:05PM 28.4667 -81.1667 186° South 276 318 7,700 -960 Descending Orlando TRACON
07:06PM 28.4000 -81.1833 192° South 225 259 7,100 -1,080 Descending Orlando TRACON
07:07PM 28.3333 -81.1833 180° South 218 251 5,500 -1,500 Descending Orlando TRACON
07:08PM 28.2833 -81.2000 196° South 217 250 4,100 -1,620 Descending Orlando TRACON
07:09PM 28.3000 -81.2667 286° West 224 258 2,400 -1,200 Descending Orlando TRACON
07:10PM 28.3500 -81.2833 344° North 160 184 1,700 -900 Descending Orlando TRACON
07:11PM 28.3833 -81.2833 360° North 128 147 700 -1,020 Descending Orlando TRACON
07:13PM 28.4167 -81.3000 336° Northwest  Level FlightAware Approximate
07:20PM 28.4294 -81.3090 336° Northwest  Level Estimated
07:21PM 28.4294 -81.3090 336° Northwest  Level Estimated
07:22PM 28.4294 -81.3090 336° Northwest  Level Estimated
07:23PM 28.4294 -81.3090 336° Northwest  Level Estimated